createdAt,value
2022-12-11T00:00:31.692Z,26.77
2022-12-11T00:03:01.236Z,30.70
2022-12-11T00:05:29.418Z,25.80
2022-12-11T00:07:57.591Z,23.40
2022-12-11T00:10:26.013Z,22.90
2022-12-11T00:12:54.218Z,25.20
2022-12-11T00:15:22.343Z,30.00
2022-12-11T00:17:51.863Z,26.60
2022-12-11T00:20:22.251Z,28.27
2022-12-11T00:22:52.847Z,30.23
2022-12-11T00:25:22.527Z,25.90
2022-12-11T00:27:51.066Z,27.43
2022-12-11T00:30:21.403Z,27.20
2022-12-11T00:32:51.815Z,26.00
2022-12-11T00:35:21.867Z,20.07
2022-12-11T00:37:50.058Z,22.80
2022-12-11T00:40:19.595Z,25.23
2022-12-11T00:42:48.018Z,22.47
2022-12-11T00:45:19.078Z,22.00
2022-12-11T00:47:50.188Z,20.87
2022-12-11T00:50:18.514Z,19.10
2022-12-11T00:52:50.644Z,20.77
2022-12-11T00:55:20.306Z,24.00
2022-12-11T00:57:52.774Z,20.13
2022-12-11T01:00:23.111Z,22.67
2022-12-11T01:02:52.643Z,21.20
2022-12-11T01:05:21.602Z,20.30
2022-12-11T01:07:51.851Z,23.03
2022-12-11T01:10:28.906Z,28.03
2022-12-11T01:12:59.294Z,21.23
2022-12-11T01:15:30.156Z,24.53
2022-12-11T01:17:59.725Z,25.93
2022-12-11T01:20:29.712Z,22.10
2022-12-11T01:23:03.780Z,21.20
2022-12-11T01:25:33.525Z,22.87
2022-12-11T01:28:02.806Z,22.73
2022-12-11T01:30:31.579Z,20.73
2022-12-11T01:33:00.873Z,20.90
2022-12-11T01:35:30.458Z,24.13
2022-12-11T01:38:00.431Z,18.40
2022-12-11T01:40:28.574Z,20.67
2022-12-11T01:42:56.702Z,24.80
2022-12-11T01:45:36.563Z,21.23
2022-12-11T01:48:09.524Z,18.23
2022-12-11T01:50:42.302Z,17.57
2022-12-11T01:53:17.561Z,17.50
2022-12-11T01:55:47.579Z,15.83
2022-12-11T01:58:17.527Z,16.33
2022-12-11T02:00:45.647Z,16.30
2022-12-11T02:03:13.821Z,15.73
2022-12-11T02:05:42.053Z,18.00
2022-12-11T02:08:11.977Z,16.00
2022-12-11T02:10:59.803Z,14.80
2022-12-11T02:13:33.615Z,15.87
2022-12-11T02:16:10.046Z,16.00
2022-12-11T02:18:42.165Z,15.40
2022-12-11T02:21:14.306Z,16.40
2022-12-11T02:24:08.234Z,17.60
2022-12-11T02:26:53.497Z,18.17
2022-12-11T02:29:27.300Z,21.67
2022-12-11T02:32:00.110Z,17.43
2022-12-11T02:34:35.095Z,25.23
2022-12-11T02:37:07.375Z,18.93
2022-12-11T02:39:39.378Z,17.83
2022-12-11T02:42:09.319Z,16.60
2022-12-11T02:44:41.183Z,16.03
2022-12-11T02:47:13.563Z,16.63
2022-12-11T02:49:44.401Z,16.40
2022-12-11T02:52:15.696Z,16.93
2022-12-11T02:54:45.816Z,15.60
2022-12-11T02:57:17.556Z,17.03
2022-12-11T02:59:47.906Z,14.30
2022-12-11T03:02:18.870Z,16.93
2022-12-11T03:04:48.111Z,17.40
2022-12-11T03:07:20.477Z,16.50
2022-12-11T03:09:49.432Z,15.70
2022-12-11T03:12:21.435Z,16.60
2022-12-11T03:14:51.353Z,18.03
2022-12-11T03:17:22.376Z,16.53
2022-12-11T03:19:56.637Z,16.47
2022-12-11T03:22:34.135Z,16.10
2022-12-11T03:25:05.383Z,17.50
2022-12-11T03:27:40.343Z,15.80
2022-12-11T03:30:13.999Z,15.17
2022-12-11T03:32:47.609Z,17.07
2022-12-11T03:35:21.601Z,17.50
2022-12-11T03:37:51.837Z,16.50
2022-12-11T03:40:22.638Z,17.10
2022-12-11T03:42:54.663Z,17.47
2022-12-11T03:45:26.019Z,18.53
2022-12-11T03:47:56.296Z,18.00
2022-12-11T03:50:28.340Z,15.83
2022-12-11T03:52:56.886Z,17.33
2022-12-11T03:55:26.262Z,19.63
2022-12-11T03:57:54.387Z,21.20
2022-12-11T04:00:24.300Z,19.50
2022-12-11T04:03:12.756Z,21.87
2022-12-11T04:05:41.901Z,20.37
2022-12-11T04:08:10.184Z,20.23
2022-12-11T04:10:38.396Z,22.03
2022-12-11T04:13:06.570Z,21.30
2022-12-11T04:15:35.256Z,23.93
2022-12-11T04:18:21.314Z,21.70
2022-12-11T04:21:06.419Z,21.47
2022-12-11T04:23:51.940Z,22.07
2022-12-11T04:26:21.682Z,19.03
2022-12-11T04:28:50.572Z,21.40
2022-12-11T04:31:22.117Z,22.53
2022-12-11T04:33:50.805Z,20.37
2022-12-11T04:36:19.155Z,18.97
2022-12-11T04:38:47.319Z,18.60
2022-12-11T04:41:16.941Z,19.40
2022-12-11T04:43:46.214Z,24.33
2022-12-11T04:46:15.870Z,20.47
2022-12-11T04:48:46.339Z,21.90
2022-12-11T04:51:15.379Z,21.30
2022-12-11T04:53:44.008Z,22.03
2022-12-11T04:56:15.517Z,21.80
2022-12-11T04:58:44.927Z,22.80
2022-12-11T05:01:15.219Z,22.83
2022-12-11T05:03:43.877Z,21.97
2022-12-11T05:06:14.340Z,32.40
2022-12-11T05:08:44.023Z,23.13
2022-12-11T05:11:14.825Z,22.67
2022-12-11T05:13:44.232Z,25.07
2022-12-11T05:16:14.920Z,22.77
2022-12-11T05:18:43.403Z,23.37
2022-12-11T05:21:15.051Z,21.30
2022-12-11T05:23:43.778Z,20.40
2022-12-11T05:26:15.163Z,22.50
2022-12-11T05:28:44.411Z,19.83
2022-12-11T05:31:15.519Z,21.00
2022-12-11T05:33:43.861Z,17.73
2022-12-11T05:36:18.337Z,18.77
2022-12-11T05:38:46.652Z,20.30
2022-12-11T05:41:16.602Z,19.50
2022-12-11T05:43:44.809Z,20.23
2022-12-11T05:46:14.679Z,18.83
2022-12-11T05:48:44.078Z,19.47
2022-12-11T05:51:13.399Z,19.53
2022-12-11T05:53:43.913Z,19.80
2022-12-11T05:56:14.264Z,21.67
2022-12-11T05:58:43.980Z,24.47
2022-12-11T06:01:13.756Z,21.33
2022-12-11T06:03:41.935Z,29.20
2022-12-11T06:06:10.322Z,23.43
2022-12-11T06:08:38.736Z,19.53
2022-12-11T06:11:08.441Z,21.90
2022-12-11T06:13:36.985Z,19.20
2022-12-11T06:16:07.553Z,21.60
2022-12-11T06:18:38.030Z,22.80
2022-12-11T06:21:14.185Z,21.23
2022-12-11T06:23:43.111Z,22.30
2022-12-11T06:26:12.994Z,22.60
2022-12-11T06:28:41.311Z,39.83
2022-12-11T06:31:09.768Z,23.60
2022-12-11T06:33:38.332Z,35.77
2022-12-11T06:36:08.238Z,20.10
2022-12-11T06:38:36.833Z,19.80
2022-12-11T06:41:06.280Z,22.03
2022-12-11T06:43:36.814Z,22.93
2022-12-11T06:46:06.301Z,27.03
2022-12-11T06:48:35.257Z,29.13
2022-12-11T06:51:07.766Z,27.77
2022-12-11T06:53:36.232Z,28.47
2022-12-11T06:56:05.512Z,41.03
2022-12-11T06:58:36.623Z,21.83
2022-12-11T07:01:05.810Z,22.97
2022-12-11T07:03:34.671Z,25.27
2022-12-11T07:06:03.226Z,28.60
2022-12-11T07:08:32.083Z,21.13
2022-12-11T07:11:05.115Z,26.27
2022-12-11T07:13:33.786Z,20.00
2022-12-11T07:16:04.761Z,20.10
2022-12-11T07:18:33.296Z,26.80
2022-12-11T07:21:01.466Z,26.70
2022-12-11T07:23:30.055Z,32.77
2022-12-11T07:25:58.759Z,31.60
2022-12-11T07:28:27.237Z,25.60
2022-12-11T07:30:55.347Z,20.93
2022-12-11T07:33:24.865Z,21.57
2022-12-11T07:35:53.011Z,23.20
2022-12-11T07:38:21.441Z,29.30
2022-12-11T07:40:49.561Z,32.07
2022-12-11T07:43:17.679Z,29.10
2022-12-11T07:45:45.859Z,32.50
2022-12-11T07:48:14.438Z,30.30
2022-12-11T07:50:43.958Z,29.10
2022-12-11T07:53:12.239Z,27.37
2022-12-11T07:55:40.354Z,29.90
2022-12-11T07:58:08.504Z,32.83
2022-12-11T08:00:36.638Z,28.90
2022-12-11T08:03:05.042Z,31.03
2022-12-11T08:05:33.122Z,32.60
2022-12-11T08:08:02.771Z,28.90
2022-12-11T08:10:30.950Z,28.20
2022-12-11T08:12:59.085Z,27.73
2022-12-11T08:15:27.330Z,40.00
2022-12-11T08:17:55.409Z,50.87
2022-12-11T08:20:23.505Z,37.10
2022-12-11T08:22:56.011Z,41.67
2022-12-11T08:25:28.445Z,43.90
2022-12-11T08:27:56.566Z,37.80
2022-12-11T08:30:24.976Z,31.90
2022-12-11T08:32:53.282Z,26.80
2022-12-11T08:35:21.690Z,25.37
2022-12-11T08:37:49.939Z,29.13
2022-12-11T08:40:18.187Z,27.03
2022-12-11T08:42:47.755Z,29.33
2022-12-11T08:45:16.045Z,29.50
2022-12-11T08:47:44.198Z,30.20
2022-12-11T08:50:12.432Z,29.03
2022-12-11T08:52:40.626Z,26.77
2022-12-11T08:55:10.099Z,28.97
2022-12-11T08:57:39.883Z,30.50
2022-12-11T09:00:12.599Z,29.53
2022-12-11T09:02:41.005Z,30.87
2022-12-11T09:05:10.372Z,40.97
2022-12-11T09:07:39.451Z,38.77
2022-12-11T09:10:10.132Z,33.43
2022-12-11T09:12:38.972Z,31.03
2022-12-11T09:15:09.592Z,34.30
2022-12-11T09:17:37.998Z,32.60
2022-12-11T09:20:07.226Z,35.23
2022-12-11T09:22:35.598Z,31.73
2022-12-11T09:25:03.747Z,31.83
2022-12-11T09:27:31.904Z,31.93
2022-12-11T09:30:00.050Z,32.50
2022-12-11T09:32:30.448Z,36.43
2022-12-11T09:34:58.547Z,38.47
2022-12-11T09:37:26.749Z,38.23
2022-12-11T09:39:54.893Z,36.10
2022-12-11T09:42:32.128Z,38.00
2022-12-11T09:45:04.546Z,34.07
2022-12-11T09:47:37.811Z,37.20
2022-12-11T09:50:13.999Z,33.93
2022-12-11T09:52:48.549Z,39.77
2022-12-11T09:55:19.619Z,31.53
2022-12-11T09:57:58.517Z,33.13
2022-12-11T10:00:31.742Z,42.20
2022-12-11T10:03:22.083Z,45.67
2022-12-11T10:05:59.671Z,43.67
2022-12-11T10:08:39.041Z,38.00
2022-12-11T10:11:28.094Z,37.40
2022-12-11T10:14:04.189Z,32.17
2022-12-11T10:16:37.987Z,27.47
2022-12-11T10:19:11.472Z,29.90
2022-12-11T10:21:41.253Z,30.90
2022-12-11T10:24:29.359Z,32.47
2022-12-11T10:27:16.242Z,28.93
2022-12-11T10:29:44.529Z,34.40
2022-12-11T10:32:21.256Z,31.77
2022-12-11T10:34:55.615Z,29.93
2022-12-11T10:37:24.350Z,30.70
2022-12-11T10:39:53.781Z,27.97
2022-12-11T10:42:23.950Z,32.60
2022-12-11T10:45:00.501Z,28.43
2022-12-11T10:47:29.459Z,30.43
2022-12-11T10:50:00.353Z,30.37
2022-12-11T10:52:32.650Z,30.47
2022-12-11T10:55:03.320Z,30.73
2022-12-11T10:57:33.807Z,24.43
2022-12-11T11:00:04.696Z,27.00
2022-12-11T11:02:35.895Z,26.17
2022-12-11T11:05:16.847Z,25.97
2022-12-11T11:07:45.453Z,24.90
2022-12-11T11:10:18.986Z,23.30
2022-12-11T11:12:49.393Z,24.40
2022-12-11T11:15:20.533Z,27.00
2022-12-11T11:17:55.459Z,22.90
2022-12-11T11:20:27.783Z,20.40
2022-12-11T11:22:58.156Z,32.20
2022-12-11T11:25:28.701Z,23.27
2022-12-11T11:27:58.812Z,26.30
2022-12-11T11:30:28.778Z,21.80
2022-12-11T11:33:00.831Z,20.47
2022-12-11T11:35:32.370Z,22.73
2022-12-11T11:38:07.008Z,22.80
2022-12-11T11:40:42.794Z,18.03
2022-12-11T11:43:23.087Z,18.73
2022-12-11T11:45:57.740Z,21.80
2022-12-11T11:48:37.666Z,20.93
2022-12-11T11:51:15.238Z,20.47
2022-12-11T11:53:49.515Z,38.23
2022-12-11T11:56:23.752Z,20.70
2022-12-11T11:58:59.608Z,21.00
2022-12-11T12:01:28.312Z,59.67
2022-12-11T12:03:57.574Z,24.87
2022-12-11T12:06:48.989Z,32.70
2022-12-11T12:09:30.825Z,18.90
2022-12-11T12:12:24.735Z,18.53
2022-12-11T12:15:09.462Z,21.40
2022-12-11T12:17:55.195Z,23.00
2022-12-11T12:20:32.580Z,27.77
2022-12-11T12:23:22.936Z,30.60
2022-12-11T12:25:59.035Z,36.00
2022-12-11T12:28:36.005Z,33.57
2022-12-11T12:31:16.283Z,33.17
2022-12-11T12:33:59.607Z,35.20
2022-12-11T12:36:34.531Z,39.80
2022-12-11T12:42:07.545Z,45.40
2022-12-11T12:44:43.041Z,39.10
2022-12-11T12:47:14.789Z,42.57
2022-12-11T12:49:48.631Z,45.93
2022-12-11T12:52:20.688Z,43.63
2022-12-11T12:55:07.717Z,43.70
2022-12-11T12:57:38.369Z,47.13
2022-12-11T13:00:13.242Z,45.60
2022-12-11T13:02:51.168Z,53.53
2022-12-11T13:05:24.925Z,45.17
2022-12-11T13:07:56.385Z,60.90
2022-12-11T13:10:29.836Z,43.03
2022-12-11T13:12:58.736Z,48.17
2022-12-11T13:15:34.803Z,44.37
2022-12-11T13:18:07.564Z,45.30
2022-12-11T13:20:47.507Z,46.40
2022-12-11T13:23:27.879Z,43.47
2022-12-11T13:25:58.947Z,42.37
2022-12-11T13:28:33.438Z,50.20
2022-12-11T13:31:08.372Z,47.67
2022-12-11T13:33:43.937Z,45.33
2022-12-11T13:36:37.823Z,49.47
2022-12-11T13:39:10.916Z,54.97
2022-12-11T13:41:41.534Z,61.63
2022-12-11T13:44:17.153Z,43.50
2022-12-11T13:46:45.435Z,44.63
2022-12-11T13:49:23.034Z,45.83
2022-12-11T13:51:56.239Z,43.83
2022-12-11T13:54:24.936Z,43.03
2022-12-11T13:57:00.598Z,45.20
2022-12-11T13:59:32.810Z,45.90
2022-12-11T14:02:06.231Z,46.13
2022-12-11T14:04:36.255Z,46.20
2022-12-11T14:07:08.681Z,45.20
2022-12-11T14:09:43.513Z,50.87
2022-12-11T14:12:18.555Z,51.13
2022-12-11T14:14:51.606Z,57.03
2022-12-11T14:17:26.624Z,58.17
2022-12-11T14:19:55.746Z,51.50
2022-12-11T14:22:25.711Z,47.77
2022-12-11T14:24:56.389Z,55.67
2022-12-11T14:27:27.446Z,57.00
2022-12-11T14:29:56.242Z,58.10
2022-12-11T14:32:32.399Z,52.90
2022-12-11T14:35:03.522Z,53.63
2022-12-11T14:37:32.468Z,58.50
2022-12-11T14:40:03.168Z,55.87
2022-12-11T14:42:38.212Z,89.03
2022-12-11T14:45:11.752Z,59.90
2022-12-11T14:47:44.141Z,51.17
2022-12-11T14:50:19.146Z,43.87
2022-12-11T14:52:50.055Z,44.50
2022-12-11T14:55:21.121Z,48.30
2022-12-11T14:57:53.304Z,45.57
2022-12-11T15:00:26.472Z,55.30
2022-12-11T15:03:03.392Z,48.30
2022-12-11T15:05:38.869Z,44.63
2022-12-11T15:08:25.509Z,44.50
2022-12-11T15:11:05.862Z,43.33
2022-12-11T15:13:37.321Z,44.57
2022-12-11T15:16:08.495Z,42.37
2022-12-11T15:18:39.648Z,39.80
2022-12-11T15:21:10.018Z,43.97
2022-12-11T15:23:51.393Z,42.67
2022-12-11T15:26:19.826Z,47.10
2022-12-11T15:28:49.399Z,43.53
2022-12-11T15:31:28.558Z,42.60
2022-12-11T15:33:57.132Z,41.20
2022-12-11T15:36:29.535Z,46.23
2022-12-11T15:38:58.001Z,44.83
2022-12-11T15:41:26.848Z,41.60
2022-12-11T15:43:59.812Z,40.50
2022-12-11T15:46:28.066Z,46.03
2022-12-11T15:48:57.927Z,44.70
2022-12-11T15:51:27.549Z,49.13
2022-12-11T15:53:55.756Z,47.63
2022-12-11T15:56:23.939Z,50.67
2022-12-11T15:58:52.326Z,53.00
2022-12-11T16:01:21.850Z,54.53
2022-12-11T16:03:50.445Z,58.77
2022-12-11T16:06:18.542Z,63.50
2022-12-11T16:08:46.679Z,65.97
2022-12-11T16:11:15.312Z,67.10
2022-12-11T16:13:43.497Z,53.80
2022-12-11T16:16:11.719Z,65.17
2022-12-11T16:18:41.335Z,60.30
2022-12-11T16:21:09.464Z,75.67
2022-12-11T16:23:37.900Z,69.27
2022-12-11T16:26:10.072Z,71.53
2022-12-11T16:28:38.511Z,72.73
2022-12-11T16:31:11.965Z,67.37
2022-12-11T16:33:41.640Z,56.57
2022-12-11T16:36:18.060Z,57.00
2022-12-11T16:38:52.902Z,56.03
2022-12-11T16:41:22.964Z,49.83
2022-12-11T16:43:51.697Z,47.03
2022-12-11T16:46:21.113Z,61.33
2022-12-11T16:48:51.127Z,91.40
2022-12-11T16:51:19.358Z,73.67
2022-12-11T16:53:47.601Z,52.50
2022-12-11T16:56:15.928Z,47.40
2022-12-11T16:58:44.559Z,41.90
2022-12-11T17:01:14.750Z,46.83
2022-12-11T17:03:44.604Z,49.50
2022-12-11T17:06:17.137Z,53.10
2022-12-11T17:08:46.135Z,53.67
2022-12-11T17:11:17.265Z,52.93
2022-12-11T17:13:54.256Z,48.60
2022-12-11T17:22:37.974Z,51.00
2022-12-11T17:25:16.351Z,52.63
2022-12-11T17:27:44.914Z,69.77
2022-12-11T17:30:14.336Z,58.03
2022-12-11T17:32:42.778Z,57.40
2022-12-11T17:35:12.150Z,55.87
2022-12-11T17:37:42.070Z,71.37
2022-12-11T17:40:11.128Z,47.07
2022-12-11T17:42:39.263Z,69.30
2022-12-11T17:45:08.522Z,60.43
2022-12-11T17:47:36.798Z,53.17
2022-12-11T17:50:05.399Z,52.40
2022-12-11T17:52:35.631Z,51.93
2022-12-11T17:55:07.890Z,47.20
2022-12-11T17:57:37.943Z,40.70
2022-12-11T18:00:07.916Z,44.50
2022-12-11T18:02:36.080Z,34.50
2022-12-11T18:05:04.359Z,43.53
2022-12-11T18:07:32.456Z,42.47
2022-12-11T18:10:00.759Z,48.70
2022-12-11T18:12:31.058Z,37.40
2022-12-11T18:15:01.607Z,47.90
2022-12-11T18:17:29.793Z,58.60
2022-12-11T18:19:57.946Z,41.70
2022-12-11T18:22:26.113Z,73.10
2022-12-11T18:24:54.653Z,52.77
2022-12-11T18:27:22.964Z,54.70
2022-12-11T18:29:52.481Z,55.07
2022-12-11T18:32:20.710Z,45.43
2022-12-11T18:34:48.977Z,45.83
2022-12-11T18:37:17.111Z,34.13
2022-12-11T18:39:45.315Z,44.33
2022-12-11T18:45:03.101Z,41.63
2022-12-11T18:47:31.738Z,41.47
2022-12-11T18:50:04.083Z,39.47
2022-12-11T18:52:35.986Z,31.50
2022-12-11T18:55:04.201Z,33.83
2022-12-11T18:57:32.518Z,27.97
2022-12-11T19:00:07.540Z,26.87
2022-12-11T19:02:36.044Z,25.70
2022-12-11T19:05:05.323Z,20.40
2022-12-11T19:07:33.511Z,19.60
2022-12-11T19:10:01.788Z,22.90
2022-12-11T19:12:29.980Z,31.10
2022-12-11T19:14:58.116Z,26.43
2022-12-11T19:17:27.610Z,20.33
2022-12-11T19:19:55.792Z,54.00
2022-12-11T19:22:23.923Z,34.73
2022-12-11T19:24:52.146Z,36.20
2022-12-11T19:27:20.361Z,37.50
2022-12-11T19:29:48.525Z,23.53
2022-12-11T19:32:16.704Z,18.10
2022-12-11T19:34:46.266Z,18.47
2022-12-11T19:37:14.492Z,22.90
2022-12-11T19:39:42.713Z,25.63
2022-12-11T19:42:10.837Z,25.63
2022-12-11T19:44:39.028Z,18.40
2022-12-11T19:47:07.201Z,24.00
2022-12-11T19:49:35.499Z,23.47
2022-12-11T19:52:05.664Z,27.80
2022-12-11T19:54:33.928Z,36.23
2022-12-11T19:57:02.091Z,45.17
2022-12-11T19:59:30.290Z,39.03
2022-12-11T20:01:58.481Z,34.33
2022-12-11T20:04:26.706Z,27.10
2022-12-11T20:06:54.923Z,26.93
2022-12-11T20:09:25.361Z,26.77
2022-12-11T20:11:53.494Z,40.40
2022-12-11T20:14:23.923Z,32.13
2022-12-11T20:17:10.963Z,27.20
2022-12-11T20:19:40.906Z,24.53
2022-12-11T20:22:09.377Z,19.50
2022-12-11T20:24:39.067Z,20.23
2022-12-11T20:27:07.348Z,17.93
2022-12-11T20:29:35.677Z,26.00
2022-12-11T20:32:03.939Z,25.87
2022-12-11T20:34:32.225Z,25.40
2022-12-11T20:37:03.044Z,24.03
2022-12-11T20:39:32.130Z,22.80
2022-12-11T20:42:04.933Z,19.33
2022-12-11T20:44:33.407Z,14.17
2022-12-11T20:47:01.522Z,13.83
2022-12-11T20:49:29.750Z,14.00
2022-12-11T20:51:57.923Z,14.83
2022-12-11T20:54:26.052Z,17.13
2022-12-11T20:56:54.254Z,18.27
2022-12-11T20:59:26.093Z,14.83
2022-12-11T21:01:57.446Z,16.03
2022-12-11T21:04:26.010Z,18.13
2022-12-11T21:06:56.254Z,27.27
2022-12-11T21:09:26.756Z,31.57
2022-12-11T21:11:55.023Z,31.33
2022-12-11T21:14:24.665Z,27.43
2022-12-11T21:16:52.825Z,23.60
2022-12-11T21:19:21.617Z,24.87
2022-12-11T21:21:50.671Z,21.13
2022-12-11T21:24:21.402Z,17.33
2022-12-11T21:26:50.483Z,18.53
2022-12-11T21:29:18.650Z,17.93
2022-12-11T21:31:48.758Z,16.60
2022-12-11T21:34:22.037Z,13.50
2022-12-11T21:36:56.472Z,14.80
2022-12-11T21:39:25.046Z,26.10
2022-12-11T21:41:53.281Z,16.83
2022-12-11T21:47:11.504Z,12.97
2022-12-11T21:49:39.653Z,14.40
2022-12-11T21:52:13.971Z,14.20
2022-12-11T21:54:42.629Z,14.20
2022-12-11T21:57:10.785Z,15.43
2022-12-11T21:59:38.975Z,14.37
2022-12-11T22:02:07.304Z,14.20
2022-12-11T22:04:37.485Z,14.73
2022-12-11T22:07:05.740Z,15.27
2022-12-11T22:09:36.567Z,15.90
2022-12-11T22:12:05.277Z,13.17
2022-12-11T22:14:34.735Z,11.50
2022-12-11T22:17:03.303Z,13.63
2022-12-11T22:19:32.858Z,12.83
2022-12-11T22:22:02.562Z,14.27
2022-12-11T22:24:31.599Z,14.63
2022-12-11T22:26:59.837Z,15.37
2022-12-11T22:29:28.057Z,12.23
2022-12-11T22:31:56.299Z,12.13
2022-12-11T22:34:24.510Z,11.33
2022-12-11T22:36:52.729Z,11.03
2022-12-11T22:39:22.358Z,11.57
2022-12-11T22:41:50.513Z,10.90
2022-12-11T22:44:20.462Z,11.70
2022-12-11T22:46:50.541Z,10.37
2022-12-11T22:49:19.229Z,13.33
2022-12-11T22:51:47.511Z,11.80
2022-12-11T22:54:15.735Z,10.40
2022-12-11T22:56:45.308Z,14.30
2022-12-11T22:59:13.526Z,13.50
2022-12-11T23:01:41.689Z,18.57
2022-12-11T23:04:09.883Z,19.83
2022-12-11T23:06:38.791Z,17.97
2022-12-11T23:09:07.263Z,13.40
2022-12-11T23:11:37.638Z,13.67
2022-12-11T23:14:09.426Z,10.20
2022-12-11T23:16:37.977Z,13.77
2022-12-11T23:19:06.250Z,16.13
2022-12-11T23:21:35.101Z,21.70
2022-12-11T23:24:04.083Z,28.93
2022-12-11T23:26:33.021Z,44.63
2022-12-11T23:29:01.615Z,22.13
2022-12-11T23:31:31.349Z,21.03
2022-12-11T23:34:00.169Z,17.53
2022-12-11T23:36:29.878Z,12.03
2022-12-11T23:38:58.160Z,12.50
2022-12-11T23:41:26.507Z,11.30
2022-12-11T23:43:54.831Z,11.97
2022-12-11T23:46:25.364Z,11.60
2022-12-11T23:48:55.945Z,11.90
2022-12-11T23:51:26.170Z,11.80
2022-12-11T23:53:54.763Z,10.60
2022-12-11T23:56:25.461Z,9.67
2022-12-11T23:58:54.157Z,12.70
